Emory, Virginia
Current Conditions -  °F | °C
As of 6:55 PM on Sunday 23 Nov 2014 (Local Time) from KVJI Reporting Station
Light Rain Light Rain  
Wind Chill: 56°   Ceiling: 8000
Heat Index: 56°   Visibility: 10mi
Dew Point: 53°   Wind: 9mph
Humidity: 89%   Direction: 130°SE
Pressure: 29.73"   Gusts: 17mph
Location:  36.77°N, 81.84°W
Report Text: KVJI 232355Z AUTO 13008G15KT 10SM -RA SCT060 BKN080 OVC090 14/12 A2973 RMK AO2 P0011 60021 T01350117 10139 20121
Loading
Personal Weather Stations






























Interactive Weather Map New forecast layout! Learn more

10-Day Weather Forecast

Advertisements
Track Severe Weather on mobile